Time;durP1;ratioP1;P1;durP2;ratioP2;P2;SDS_P1;SDS_P2;PMS_P1;PMS_P2;Temp;Humidity;BMP_temperature;BMP_pressure;BME280_temperature;BME280_humidity;BME280_pressure;Samples;Min_cycle;Max_cycle;Signal;HPM_P1;HPM_P2
2021/03/11 00:00:39;;;;;;;38.95;20.90;;;;;;;5.90;81.84;100227.03;4962998;28;20165;-72
2021/03/11 00:03:06;;;;;;;39.28;18.50;;;;;;;5.91;81.17;100220.84;4952703;28;20063;-72
2021/03/11 00:05:34;;;;;;;26.83;14.55;;;;;;;5.93;81.24;100226.75;4946219;28;20061;-72
2021/03/11 00:08:02;;;;;;;39.53;19.00;;;;;;;5.96;81.10;100215.31;4961562;28;20058;-72
2021/03/11 00:10:29;;;;;;;27.30;16.73;;;;;;;5.96;80.66;100223.13;4961636;28;20462;-72
2021/03/11 00:12:55;;;;;;;30.90;16.75;;;;;;;6.02;80.13;100193.09;4937425;28;20094;-73
2021/03/11 00:15:23;;;;;;;28.27;14.75;;;;;;;6.01;80.04;100186.25;4961450;28;20149;-72
2021/03/11 00:17:49;;;;;;;36.67;19.10;;;;;;;6.03;80.32;100213.00;4953587;28;20142;-73
2021/03/11 00:20:23;;;;;;;35.35;18.02;;;;;;;6.02;79.79;100183.53;4965130;28;20054;-73
2021/03/11 00:22:50;;;;;;;34.80;18.60;;;;;;;5.99;80.02;100178.56;4964763;28;20109;-72
2021/03/11 00:25:20;;;;;;;31.23;15.95;;;;;;;6.03;80.23;100172.16;4960149;28;20054;-73
2021/03/11 00:27:47;;;;;;;28.30;15.38;;;;;;;6.02;80.10;100182.69;4965258;28;20062;-73
2021/03/11 00:30:14;;;;;;;35.95;18.98;;;;;;;5.99;80.24;100175.16;4956923;28;20125;-73
2021/03/11 00:32:40;;;;;;;34.13;19.30;;;;;;;6.04;80.40;100178.19;4942502;28;20102;-73
2021/03/11 00:35:08;;;;;;;32.13;19.38;;;;;;;6.04;80.20;100170.38;4960522;28;20502;-73
2021/03/11 00:37:36;;;;;;;39.35;19.52;;;;;;;6.10;80.24;100172.47;4965591;28;20456;-72
2021/03/11 00:40:04;;;;;;;32.08;17.08;;;;;;;6.06;79.79;100152.84;4960613;28;20062;-73
2021/03/11 00:42:30;;;;;;;33.15;17.08;;;;;;;6.08;79.73;100143.13;4963595;28;20062;-73
2021/03/11 00:44:56;;;;;;;34.72;17.58;;;;;;;6.08;80.01;100151.75;4959673;28;20142;-73
2021/03/11 00:47:22;;;;;;;32.15;18.35;;;;;;;6.09;79.93;100126.53;4958469;28;20059;-73
2021/03/11 00:49:49;;;;;;;36.95;18.67;;;;;;;6.10;79.53;100120.38;4954338;28;20550;-73
2021/03/11 00:52:16;;;;;;;27.38;15.82;;;;;;;6.12;79.78;100118.47;4950067;28;20179;-73
2021/03/11 00:54:42;;;;;;;38.28;19.13;;;;;;;6.16;79.14;100101.59;4958945;28;20510;-73
2021/03/11 00:57:08;;;;;;;32.88;18.65;;;;;;;6.18;79.93;100099.69;4961787;28;20066;-73
2021/03/11 00:59:35;;;;;;;30.83;15.32;;;;;;;6.18;79.30;100088.47;4951897;28;20422;-73
2021/03/11 01:02:02;;;;;;;33.75;18.20;;;;;;;6.21;79.14;100090.78;4955687;28;20146;-73
2021/03/11 01:04:28;;;;;;;33.95;18.10;;;;;;;6.22;79.54;100095.84;4950926;28;20063;-71
2021/03/11 01:06:54;;;;;;;28.83;15.40;;;;;;;6.21;79.75;100060.34;4959924;28;20081;-72
2021/03/11 01:09:20;;;;;;;32.75;18.38;;;;;;;6.26;78.98;100067.75;4958669;28;20394;-71
2021/03/11 01:11:46;;;;;;;30.92;15.25;;;;;;;6.29;78.93;100067.47;4960303;28;20482;-71
2021/03/11 01:14:12;;;;;;;30.67;16.55;;;;;;;6.31;79.08;100055.97;4948471;28;20507;-71
2021/03/11 01:16:38;;;;;;;35.97;17.15;;;;;;;6.32;79.83;100054.19;4960668;28;20105;-71
2021/03/11 01:19:05;;;;;;;29.63;16.65;;;;;;;6.36;79.25;100054.72;4958898;28;20131;-71
2021/03/11 01:21:31;;;;;;;30.63;17.38;;;;;;;6.38;78.98;100051.03;4944347;29;20970;-72
2021/03/11 01:24:13;;;;;;;29.30;15.27;;;;;;;6.39;79.31;100037.06;4953829;28;20059;-71
2021/03/11 01:26:39;;;;;;;31.38;17.23;;;;;;;6.43;79.44;100035.81;4956635;28;20392;-71
2021/03/11 01:29:05;;;;;;;29.05;16.83;;;;;;;6.48;79.26;100019.75;4956199;28;20063;-71
2021/03/11 01:31:31;;;;;;;23.98;14.48;;;;;;;6.46;79.92;100024.28;4939502;28;20506;-71
2021/03/11 01:33:57;;;;;;;31.13;17.42;;;;;;;6.49;79.83;100016.19;4958699;28;20066;-71
2021/03/11 01:36:23;;;;;;;29.90;16.92;;;;;;;6.50;80.47;100004.81;4950010;28;20063;-71
2021/03/11 01:38:49;;;;;;;28.60;16.70;;;;;;;6.48;80.61;99998.91;4964239;28;20058;-71
2021/03/11 01:41:15;;;;;;;31.75;17.65;;;;;;;6.46;80.76;99986.03;4941995;28;20061;-71
2021/03/11 01:43:41;;;;;;;26.55;15.63;;;;;;;6.46;81.18;99993.03;4964345;28;20069;-71
2021/03/11 01:46:08;;;;;;;23.42;14.23;;;;;;;6.42;81.40;99965.59;4965463;28;20089;-71
2021/03/11 01:48:35;;;;;;;27.08;14.98;;;;;;;6.45;80.85;99965.31;4956783;28;20059;-71
2021/03/11 01:51:02;;;;;;;29.60;16.02;;;;;;;6.48;81.22;99949.41;4958954;28;20879;-71
2021/03/11 01:53:29;;;;;;;28.40;17.55;;;;;;;6.47;80.56;99953.00;4952738;28;20105;-71
2021/03/11 01:55:56;;;;;;;25.40;15.70;;;;;;;6.47;81.32;99935.56;4965561;28;20161;-71
2021/03/11 01:58:23;;;;;;;30.95;16.60;;;;;;;6.51;80.87;99942.13;4940613;28;20087;-71
2021/03/11 02:00:49;;;;;;;27.92;15.93;;;;;;;6.53;81.18;99936.78;4965781;28;20477;-72
2021/03/11 02:03:16;;;;;;;27.35;14.45;;;;;;;6.56;80.85;99931.28;4957102;28;20517;-72
2021/03/11 02:05:42;;;;;;;27.65;16.55;;;;;;;6.59;80.97;99919.78;4959848;28;20578;-72
2021/03/11 02:08:07;;;;;;;24.60;14.55;;;;;;;6.59;80.38;99904.94;4952668;28;20069;-72
2021/03/11 02:10:33;;;;;;;25.25;15.05;;;;;;;6.60;80.71;99901.38;4960102;28;20061;-72
2021/03/11 02:13:09;;;;;;;24.50;13.88;;;;;;;6.62;81.14;99883.78;4967685;28;20051;-72
2021/03/11 02:16:03;;;;;;;25.30;14.00;;;;;;;6.61;80.37;99886.56;4961955;28;20569;-72
2021/03/11 02:18:35;;;;;;;31.23;13.85;;;;;;;6.69;80.49;99868.44;4967527;28;20858;-72
2021/03/11 02:21:15;;;;;;;23.60;14.77;;;;;;;6.65;80.64;99873.09;4963002;28;20114;-72
2021/03/11 02:23:54;;;;;;;24.00;14.07;;;;;;;6.71;80.23;99861.28;4964991;28;20161;-72
2021/03/11 02:27:00;;;;;;;20.23;12.13;;;;;;;6.71;81.07;99861.28;4952629;28;20177;-72
2021/03/11 02:29:29;;;;;;;24.13;13.80;;;;;;;6.67;80.64;99844.28;4961705;28;20086;-72
2021/03/11 02:31:58;;;;;;;25.83;15.25;;;;;;;6.68;80.98;99815.50;4951603;28;20058;-72
2021/03/11 02:34:26;;;;;;;;;;;;;;;6.68;81.82;99817.25;4942880;28;20150;-72
2021/03/11 02:36:55;;;;;;;22.27;13.40;;;;;;;6.65;81.86;99802.75;4962011;28;20523;-72
2021/03/11 02:39:25;;;;;;;22.00;13.07;;;;;;;6.61;82.28;99801.41;4967367;28;20082;-72
2021/03/11 02:41:53;;;;;;;25.17;12.85;;;;;;;6.61;82.08;99804.00;4963431;28;20090;-72
2021/03/11 02:44:21;;;;;;;22.35;13.27;;;;;;;6.60;82.60;99791.91;4959339;28;20075;-72
2021/03/11 02:46:49;;;;;;;26.53;14.37;;;;;;;6.60;82.90;99798.94;4967461;28;20167;-72
2021/03/11 02:49:19;;;;;;;24.95;13.70;;;;;;;6.62;82.70;99805.63;4944536;28;20292;-72
2021/03/11 02:51:48;;;;;;;18.77;12.00;;;;;;;6.62;82.71;99813.44;4966607;28;20130;-72
2021/03/11 02:54:15;;;;;;;22.77;13.27;;;;;;;6.69;82.97;99804.09;4960933;28;20085;-72
2021/03/11 02:57:01;;;;;;;18.38;12.40;;;;;;;6.68;82.53;99796.41;4947280;28;20117;-72
2021/03/11 02:59:29;;;;;;;21.05;13.45;;;;;;;6.70;82.60;99774.47;4944451;28;20134;-72
2021/03/11 03:01:56;;;;;;;18.30;10.80;;;;;;;6.73;82.62;99786.38;4967041;28;20787;-72
2021/03/11 03:04:25;;;;;;;20.08;12.63;;;;;;;6.78;82.52;99739.00;4961540;28;20396;-72
2021/03/11 03:06:51;;;;;;;16.20;9.65;;;;;;;6.81;82.22;99751.75;4957560;28;20070;-72
2021/03/11 03:09:19;;;;;;;21.42;12.73;;;;;;;6.81;82.67;99747.34;4958321;28;20490;-73
2021/03/11 03:11:47;;;;;;;18.30;11.48;;;;;;;6.84;82.12;99735.81;4956127;28;20086;-72
2021/03/11 03:14:13;;;;;;;19.58;12.05;;;;;;;6.87;82.15;99778.03;4967368;28;20059;-72
2021/03/11 03:16:41;;;;;;;15.27;10.05;;;;;;;6.84;82.24;99725.38;4961293;28;20675;-73
2021/03/11 03:19:10;;;;;;;20.57;12.20;;;;;;;6.91;82.16;99735.06;4966972;28;20162;-73
2021/03/11 03:21:37;;;;;;;15.80;10.20;;;;;;;6.95;82.34;99747.81;4958806;28;20452;-72
2021/03/11 03:24:03;;;;;;;15.20;11.13;;;;;;;6.95;82.28;99740.81;4963475;28;20541;-73
2021/03/11 03:26:29;;;;;;;15.90;11.00;;;;;;;6.98;82.03;99742.28;4965913;28;20488;-71
2021/03/11 03:28:55;;;;;;;17.15;10.55;;;;;;;7.01;82.02;99753.22;4961269;28;20058;-72
2021/03/11 03:31:22;;;;;;;18.05;12.85;;;;;;;7.03;81.66;99734.84;4966969;28;20491;-71
2021/03/11 03:33:48;;;;;;;15.30;11.23;;;;;;;7.08;81.90;99712.56;4954848;28;20415;-72
2021/03/11 03:36:14;;;;;;;16.60;11.43;;;;;;;7.09;82.14;99714.19;4956109;28;20067;-72
2021/03/11 03:38:40;;;;;;;18.48;11.32;;;;;;;7.10;82.55;99708.00;4954597;28;20069;-72
2021/03/11 03:41:08;;;;;;;21.63;12.30;;;;;;;7.11;82.71;99706.22;4966812;28;20944;-72
2021/03/11 03:43:39;;;;;;;20.88;14.38;;;;;;;7.04;83.80;99705.19;4959554;28;20133;-72
2021/03/11 03:46:14;;;;;;;19.98;13.60;;;;;;;6.99;83.84;99697.81;4966660;28;20153;-71
2021/03/11 03:48:44;;;;;;;17.58;11.95;;;;;;;7.01;84.27;99708.09;4955881;28;20173;-71
2021/03/11 03:51:12;;;;;;;18.77;12.95;;;;;;;7.08;84.11;99712.56;4957610;28;20114;-71
2021/03/11 03:53:44;;;;;;;18.58;12.68;;;;;;;7.10;84.21;99715.03;4940211;29;20122;-71
2021/03/11 03:56:34;;;;;;;19.13;12.57;;;;;;;-145.50;100.00;65435.88;4948738;28;20101;-71
2021/03/11 03:59:06;;;;;;;21.92;13.27;;;;;;;-145.50;100.00;65435.88;4962628;28;20085;-71
2021/03/11 04:01:38;;;;;;;20.98;13.07;;;;;;;7.24;83.79;99718.88;4955827;28;20727;-71
2021/03/11 04:04:07;;;;;;;19.88;12.93;;;;;;;7.22;83.87;99710.38;4956017;28;20151;-71
2021/03/11 04:06:34;;;;;;;24.02;14.77;;;;;;;7.22;83.87;99710.38;4942368;28;20142;-71
2021/03/11 04:10:03;;;;;;;19.60;13.25;;;;;;;-145.50;100.00;65435.88;4962809;28;20058;-71
2021/03/11 04:13:09;;;;;;;19.33;13.00;;;;;;;-145.50;100.00;65435.88;4958674;28;20102;-71
2021/03/11 04:16:32;;;;;;;19.70;12.63;;;;;;;-145.50;100.00;65435.88;4963383;28;20141;-71
2021/03/11 04:19:53;;;;;;;21.63;13.68;;;;;;;-145.50;100.00;65435.88;4963672;28;20106;-71
2021/03/11 04:23:03;;;;;;;16.73;11.77;;;;;;;-145.50;100.00;65435.88;4933207;28;20146;-72
2021/03/11 04:25:32;;;;;;;21.77;13.20;;;;;;;7.22;83.87;99710.38;4965818;28;20086;-71
2021/03/11 04:27:59;;;;;;;;;;;;;;;7.22;83.87;99710.38;4939828;28;20094;-71
2021/03/11 04:30:25;;;;;;;22.02;14.27;;;;;;;7.22;83.87;99710.38;4944395;28;20040;-71
2021/03/11 04:32:52;;;;;;;21.45;14.10;;;;;;;-145.50;100.00;65435.88;4963707;28;20157;-71
2021/03/11 04:35:19;;;;;;;24.77;14.02;;;;;;;-145.50;100.00;65435.88;4948978;28;20058;-71
2021/03/11 04:37:45;;;;;;;19.30;12.70;;;;;;;-145.50;100.00;65435.88;4965562;28;20588;-71
2021/03/11 04:40:11;;;;;;;21.35;13.43;;;;;;;-145.50;100.00;65435.88;4959277;28;20062;-71
2021/03/11 04:42:38;;;;;;;25.60;17.48;;;;;;;-145.50;100.00;65435.88;4952470;28;20138;-72
2021/03/11 04:45:07;;;;;;;22.88;14.50;;;;;;;-145.50;100.00;65435.88;4955898;28;20059;-72
2021/03/11 04:47:35;;;;;;;25.00;14.00;;;;;;;-145.50;100.00;65435.88;4965585;28;20138;-72
2021/03/11 04:50:04;;;;;;;24.25;15.20;;;;;;;-145.50;100.00;65435.88;4960781;28;20660;-72
2021/03/11 04:52:30;;;;;;;24.70;14.98;;;;;;;-145.50;100.00;65435.88;4964374;28;20521;-72
2021/03/11 04:54:58;;;;;;;23.48;15.35;;;;;;;-145.50;100.00;65435.88;4962607;28;20563;-72
2021/03/11 04:57:26;;;;;;;23.27;13.05;;;;;;;-145.50;100.00;65435.88;4937913;28;20070;-72
2021/03/11 04:59:53;;;;;;;18.02;12.20;;;;;;;-145.50;100.00;65435.88;4964852;28;20973;-72
2021/03/11 05:02:19;;;;;;;23.63;13.40;;;;;;;-145.50;100.00;65435.88;4958206;28;20145;-72
2021/03/11 05:04:46;;;;;;;22.25;13.27;;;;;;;-145.50;100.00;65435.88;4958138;28;20055;-72
2021/03/11 05:07:15;;;;;;;24.33;15.02;;;;;;;-145.50;100.00;65435.88;4953608;28;20078;-72
2021/03/11 05:09:41;;;;;;;25.17;15.88;;;;;;;-145.50;100.00;65435.88;4954412;28;20113;-71
2021/03/11 05:12:08;;;;;;;24.60;15.07;;;;;;;-145.50;100.00;65435.88;4954336;28;20727;-72
2021/03/11 05:14:34;;;;;;;20.63;13.88;;;;;;;-145.50;100.00;65435.88;4960067;28;20478;-71
2021/03/11 05:16:59;;;;;;;24.48;15.13;;;;;;;-145.50;100.00;65435.88;4965703;28;20068;-71
2021/03/11 05:19:26;;;;;;;25.02;14.80;;;;;;;-145.50;100.00;65435.88;4957327;28;20063;-71
2021/03/11 05:21:51;;;;;;;25.52;16.27;;;;;;;-145.50;100.00;65435.88;4946324;28;20051;-71
2021/03/11 05:24:17;;;;;;;26.88;16.30;;;;;;;-145.50;100.00;65435.88;4953492;28;20057;-71
2021/03/11 05:26:43;;;;;;;24.63;15.52;;;;;;;-145.50;100.00;65435.88;4943155;28;20055;-71
2021/03/11 05:29:12;;;;;;;27.98;15.15;;;;;;;-145.50;100.00;65435.88;4958896;28;20153;-72
2021/03/11 05:31:38;;;;;;;26.48;16.13;;;;;;;-145.50;100.00;65435.88;4963579;28;20054;-72
2021/03/11 05:34:04;;;;;;;23.75;13.20;;;;;;;-145.50;100.00;65435.88;4960260;28;20142;-72
2021/03/11 05:36:30;;;;;;;23.00;14.18;;;;;;;-145.50;100.00;65435.88;4954775;28;20059;-72
2021/03/11 05:38:56;;;;;;;21.98;12.50;;;;;;;-145.50;100.00;65435.88;4952857;28;20063;-72
2021/03/11 05:41:22;;;;;;;23.90;13.48;;;;;;;-145.50;100.00;65435.88;4936963;28;20054;-71
2021/03/11 05:43:50;;;;;;;22.77;13.00;;;;;;;-145.50;100.00;65435.88;4960906;28;20066;-71
2021/03/11 05:46:17;;;;;;;18.57;11.63;;;;;;;-145.50;100.00;65435.88;4962489;28;20669;-71
2021/03/11 05:48:44;;;;;;;24.38;13.68;;;;;;;-145.50;100.00;65435.88;4950342;28;20296;-72
2021/03/11 05:51:12;;;;;;;23.60;13.48;;;;;;;-145.50;100.00;65435.88;4951383;28;20051;-71
2021/03/11 05:53:38;;;;;;;24.40;11.15;;;;;;;-145.50;100.00;65435.88;4963060;28;20082;-72
2021/03/11 05:56:05;;;;;;;25.67;13.57;;;;;;;-145.50;100.00;65435.88;4968018;28;20423;-72
2021/03/11 05:58:31;;;;;;;24.17;12.73;;;;;;;-145.50;100.00;65435.88;4964592;28;20178;-71
2021/03/11 06:01:00;;;;;;;22.92;12.95;;;;;;;-145.50;100.00;65435.88;4967850;28;20486;-72
2021/03/11 06:03:30;;;;;;;21.55;12.60;;;;;;;-145.50;100.00;65435.88;4960978;28;20086;-71
2021/03/11 06:05:58;;;;;;;31.38;14.23;;;;;;;-145.50;100.00;65435.88;4967103;28;20063;-71
2021/03/11 06:08:25;;;;;;;22.58;12.63;;;;;;;-145.50;100.00;65435.88;4962136;28;20130;-71
2021/03/11 06:10:56;;;;;;;19.70;10.38;;;;;;;-145.50;100.00;65435.88;4968439;28;20586;-73
2021/03/11 06:13:23;;;;;;;25.00;13.63;;;;;;;-145.50;100.00;65435.88;4961893;28;20133;-70
2021/03/11 06:16:03;;;;;;;21.27;12.63;;;;;;;-145.50;100.00;65435.88;4964552;28;20062;-71
2021/03/11 06:18:34;;;;;;;22.33;12.35;;;;;;;-145.50;100.00;65435.88;4964552;28;20069;-71
2021/03/11 06:21:01;;;;;;;21.48;13.02;;;;;;;-145.50;100.00;65435.88;4961835;28;20066;-71
2021/03/11 06:23:29;;;;;;;20.70;12.60;;;;;;;-145.50;100.00;65435.88;4967529;28;20419;-71
2021/03/11 06:25:56;;;;;;;19.80;11.30;;;;;;;-145.50;100.00;65435.88;4961929;28;20500;-72
2021/03/11 06:28:44;;;;;;;19.80;10.52;;;;;;;-145.50;100.00;65435.88;4959649;28;20063;-72
2021/03/11 06:31:20;;;;;;;20.23;12.20;;;;;;;-145.50;100.00;65435.88;4955974;28;20306;-72
2021/03/11 06:33:49;;;;;;;21.83;12.18;;;;;;;-145.50;100.00;65435.88;4958412;28;20134;-72
2021/03/11 06:36:22;;;;;;;20.80;10.40;;;;;;;-145.50;100.00;65435.88;4961001;28;20094;-71
2021/03/11 06:38:49;;;;;;;20.75;10.90;;;;;;;-145.50;100.00;65435.88;4963095;28;20121;-72
2021/03/11 06:41:16;;;;;;;16.67;10.07;;;;;;;-145.50;100.00;65435.88;4961541;28;20524;-71
2021/03/11 06:43:56;;;;;;;20.77;11.02;;;;;;;-145.50;100.00;65435.88;4962830;28;20466;-71
2021/03/11 06:46:23;;;;;;;21.45;10.45;;;;;;;-145.50;100.00;65435.88;4950680;28;20590;-72
2021/03/11 06:48:50;;;;;;;19.67;10.60;;;;;;;-145.50;100.00;65435.88;4963044;28;20113;-72
2021/03/11 06:51:19;;;;;;;16.98;9.73;;;;;;;-145.50;100.00;65435.88;4962369;28;20228;-72
2021/03/11 06:53:57;;;;;;;19.00;10.25;;;;;;;-145.50;100.00;65435.88;4960451;28;20140;-71
2021/03/11 06:56:25;;;;;;;16.10;9.53;;;;;;;-145.50;100.00;65435.88;4966408;28;20094;-72
2021/03/11 06:58:59;;;;;;;18.67;10.07;;;;;;;-145.50;100.00;65435.88;4961477;28;20121;-72
2021/03/11 07:01:27;;;;;;;18.92;10.07;;;;;;;-145.50;100.00;65435.88;4967433;28;20124;-71
2021/03/11 07:03:53;;;;;;;22.52;10.60;;;;;;;-145.50;100.00;65435.88;4940072;28;20067;-70
2021/03/11 07:06:26;;;;;;;19.05;9.95;;;;;;;-145.50;100.00;65435.88;4962017;28;20058;-72
2021/03/11 07:08:53;;;;;;;16.67;9.45;;;;;;;-145.50;100.00;65435.88;4953204;28;20450;-72
2021/03/11 07:11:20;;;;;;;14.13;8.50;;;;;;;-145.50;100.00;65435.88;4946018;28;20125;-72
2021/03/11 07:13:46;;;;;;;17.40;8.00;;;;;;;-145.50;100.00;65435.88;4966673;28;20062;-72
2021/03/11 07:16:18;;;;;;;14.63;7.72;;;;;;;-145.50;100.00;65435.88;4961277;28;20094;-72
2021/03/11 07:18:45;;;;;;;19.33;7.35;;;;;;;-145.50;100.00;65435.88;4967349;28;20082;-72
2021/03/11 07:21:12;;;;;;;13.88;7.40;;;;;;;-145.50;100.00;65435.88;4957232;28;20160;-72
2021/03/11 07:23:49;;;;;;;16.38;6.97;;;;;;;-145.50;100.00;65435.88;4961218;28;20125;-71
2021/03/11 07:26:16;;;;;;;12.68;5.35;;;;;;;-145.50;100.00;65435.88;4962065;28;20169;-72
2021/03/11 07:28:44;;;;;;;;;;;;;;;-145.50;100.00;65435.88;4968048;28;20479;-71
2021/03/11 07:31:10;;;;;;;12.82;5.75;;;;;;;-145.50;100.00;65435.88;4961374;28;19933;-72
2021/03/11 07:33:38;;;;;;;14.13;5.03;;;;;;;-145.50;100.00;65435.88;4961354;28;20069;-74
2021/03/11 07:36:07;;;;;;;13.60;5.50;;;;;;;-145.50;100.00;65435.88;4963652;28;20070;-71
2021/03/11 07:38:34;;;;;;;15.80;5.55;;;;;;;-145.50;100.00;65435.88;4953358;28;20471;-73
2021/03/11 07:41:09;;;;;;;14.63;6.15;;;;;;;-145.50;100.00;65435.88;4952809;28;20082;-72
2021/03/11 07:43:35;;;;;;;16.65;6.63;;;;;;;-145.50;100.00;65435.88;4948006;28;20051;-72
2021/03/11 07:46:05;;;;;;;17.85;6.22;;;;;;;-145.50;100.00;65435.88;4961429;28;20056;-72
2021/03/11 07:48:31;;;;;;;9.43;5.68;;;;;;;-145.50;100.00;65435.88;4956729;28;20054;-72
2021/03/11 07:50:58;;;;;;;13.20;6.35;;;;;;;-145.50;100.00;65435.88;4962269;28;20545;-72
2021/03/11 07:53:25;;;;;;;14.52;6.13;;;;;;;-145.50;100.00;65435.88;4942497;28;20876;-72
2021/03/11 07:55:54;;;;;;;14.13;5.68;;;;;;;-145.50;100.00;65435.88;4965911;28;20058;-72
2021/03/11 07:58:39;;;;;;;11.40;5.47;;;;;;;-145.50;100.00;65435.88;4944577;28;20137;-72
2021/03/11 08:01:06;;;;;;;11.07;4.45;;;;;;;-145.50;100.00;65435.88;4958145;28;20067;-73
2021/03/11 08:03:34;;;;;;;13.27;5.10;;;;;;;-145.50;100.00;65435.88;4959490;28;20059;-73
2021/03/11 08:06:22;;;;;;;11.00;5.10;;;;;;;-145.50;100.00;65435.88;4960157;28;20062;-73
2021/03/11 08:08:49;;;;;;;12.95;5.20;;;;;;;-145.50;100.00;65435.88;4965155;28;20533;-73
2021/03/11 08:11:38;;;;;;;15.07;3.72;;;;;;;-145.50;100.00;65435.88;4960334;28;20834;-73
2021/03/11 08:14:24;;;;;;;13.50;3.30;;;;;;;-145.50;100.00;65435.88;4965485;28;20084;-72
2021/03/11 08:16:52;;;;;;;11.85;2.95;;;;;;;-145.50;100.00;65435.88;4939281;28;20090;-72
2021/03/11 08:19:45;;;;;;;7.55;3.00;;;;;;;-145.50;100.00;65435.88;4962768;28;20051;-73
2021/03/11 08:22:11;;;;;;;15.30;3.65;;;;;;;-145.50;100.00;65435.88;4950121;28;20122;-72
2021/03/11 08:24:42;;;;;;;14.23;2.85;;;;;;;-145.50;100.00;65435.88;4962909;28;20051;-72
2021/03/11 08:27:30;;;;;;;13.73;3.25;;;;;;;-145.50;100.00;65435.88;4959559;28;20133;-72
2021/03/11 08:29:57;;;;;;;14.23;3.08;;;;;;;-145.50;100.00;65435.88;4961647;28;20156;-72
2021/03/11 08:32:49;;;;;;;12.20;3.38;;;;;;;-145.50;100.00;65435.88;4955623;28;20566;-73
2021/03/11 08:35:28;;;;;;;21.77;3.80;;;;;;;-145.50;100.00;65435.88;4954481;28;20487;-72
2021/03/11 08:37:55;;;;;;;15.02;3.25;;;;;;;-145.50;100.00;65435.88;4939567;28;20896;-73
2021/03/11 08:40:44;;;;;;;18.85;3.30;;;;;;;-145.50;100.00;65435.88;4939534;29;20570;-72
2021/03/11 08:43:10;;;;;;;14.32;3.13;;;;;;;-145.50;100.00;65435.88;4961490;28;20154;-74
2021/03/11 08:45:39;;;;;;;13.10;2.92;;;;;;;-145.50;100.00;65435.88;4950220;28;20054;-74
2021/03/11 08:48:16;;;;;;;14.80;3.13;;;;;;;-145.50;100.00;65435.88;4946913;28;20059;-73
2021/03/11 08:50:44;;;;;;;17.05;2.67;;;;;;;-145.50;100.00;65435.88;4959035;28;20058;-73
2021/03/11 08:53:10;;;;;;;27.73;3.13;;;;;;;-145.50;100.00;65435.88;4964590;28;20141;-73
2021/03/11 08:55:38;;;;;;;18.08;2.80;;;;;;;-145.50;100.00;65435.88;4960495;28;20625;-72
2021/03/11 08:58:26;;;;;;;23.83;3.22;;;;;;;-145.50;100.00;65435.88;4960847;28;20058;-74
2021/03/11 09:01:03;;;;;;;20.58;3.50;;;;;;;-145.50;100.00;65435.88;4958833;28;20069;-72
2021/03/11 09:03:38;;;;;;;24.27;3.63;;;;;;;-145.50;100.00;65435.88;4961330;28;20399;-72
2021/03/11 09:06:06;;;;;;;32.67;3.70;;;;;;;-145.50;100.00;65435.88;4959305;28;20074;-73
2021/03/11 09:08:44;;;;;;;23.45;4.15;;;;;;;-145.50;100.00;65435.88;4963997;28;20066;-73
2021/03/11 09:11:21;;;;;;;22.50;3.15;;;;;;;-145.50;100.00;65435.88;4961416;28;20137;-73
2021/03/11 09:13:53;;;;;;;26.60;3.72;;;;;;;-145.50;100.00;65435.88;4957897;28;20062;-73
2021/03/11 09:16:26;;;;;;;19.33;2.97;;;;;;;-145.50;100.00;65435.88;4964927;28;20673;-73
2021/03/11 09:18:57;;;;;;;21.45;3.60;;;;;;;-145.50;100.00;65435.88;4958918;28;20073;-73
2021/03/11 09:21:43;;;;;;;21.65;3.75;;;;;;;-145.50;100.00;65435.88;4968117;28;20871;-73
2021/03/11 09:24:20;;;;;;;33.33;5.00;;;;;;;-145.50;100.00;65435.88;4962378;28;20051;-73
2021/03/11 09:26:46;;;;;;;38.80;6.03;;;;;;;-145.50;100.00;65435.88;4958014;28;20054;-74
2021/03/11 09:29:14;;;;;;;31.48;4.43;;;;;;;-145.50;100.00;65435.88;4958534;28;20245;-73
2021/03/11 09:31:40;;;;;;;25.95;4.18;;;;;;;-145.50;100.00;65435.88;4952994;28;20089;-74
2021/03/11 09:34:07;;;;;;;39.33;6.65;;;;;;;-145.50;100.00;65435.88;4942593;28;20059;-72
2021/03/11 09:36:34;;;;;;;38.25;4.57;;;;;;;-145.50;100.00;65435.88;4961367;28;20196;-72
2021/03/11 09:39:03;;;;;;;34.28;5.28;;;;;;;-145.50;100.00;65435.88;4967260;28;20495;-72
2021/03/11 09:41:31;;;;;;;30.27;4.53;;;;;;;-145.50;100.00;65435.88;4961033;28;20090;-72
2021/03/11 09:44:07;;;;;;;38.05;5.25;;;;;;;-145.50;100.00;65435.88;4967591;28;20656;-72
2021/03/11 09:46:34;;;;;;;30.17;5.07;;;;;;;-145.50;100.00;65435.88;4954542;28;20071;-72
2021/03/11 09:49:02;;;;;;;34.47;5.05;;;;;;;-145.50;100.00;65435.88;4956004;28;20430;-72
2021/03/11 09:51:30;;;;;;;32.97;4.68;;;;;;;-145.50;100.00;65435.88;4935171;28;20058;-72
2021/03/11 09:54:04;;;;;;;35.03;5.22;;;;;;;-145.50;100.00;65435.88;4938363;28;20788;-73
2021/03/11 09:56:31;;;;;;;28.25;4.13;;;;;;;-145.50;100.00;65435.88;4957766;28;20062;-73
2021/03/11 09:59:01;;;;;;;32.15;5.63;;;;;;;-145.50;100.00;65435.88;4964872;28;20086;-73
2021/03/11 10:01:38;;;;;;;33.15;5.20;;;;;;;-145.50;100.00;65435.88;4965349;28;20078;-73
2021/03/11 10:04:14;;;;;;;36.42;5.72;;;;;;;-145.50;100.00;65435.88;4966013;28;20073;-73
2021/03/11 10:06:57;;;;;;;39.03;4.90;;;;;;;-145.50;100.00;65435.88;4963735;28;20058;-73
2021/03/11 10:09:25;;;;;;;29.05;5.35;;;;;;;-145.50;100.00;65435.88;4949800;28;20794;-73
2021/03/11 10:11:54;;;;;;;39.45;5.93;;;;;;;-145.50;100.00;65435.88;4967735;28;20094;-73
2021/03/11 10:14:23;;;;;;;40.30;5.47;;;;;;;-145.50;100.00;65435.88;4962448;28;20058;-74
2021/03/11 10:16:51;;;;;;;25.00;4.07;;;;;;;-145.50;100.00;65435.88;4959790;28;20098;-75
2021/03/11 10:19:20;;;;;;;38.55;5.13;;;;;;;-145.50;100.00;65435.88;4947389;28;20113;-73
2021/03/11 10:21:49;;;;;;;30.38;4.95;;;;;;;-145.50;100.00;65435.88;4963843;28;20059;-73
2021/03/11 10:24:43;;;;;;;26.30;4.60;;;;;;;-145.50;100.00;65435.88;4962193;28;20173;-73
2021/03/11 10:27:22;;;;;;;43.28;6.38;;;;;;;-145.50;100.00;65435.88;4968339;28;20199;-74
2021/03/11 10:30:00;;;;;;;37.78;4.78;;;;;;;-145.50;100.00;65435.88;4953492;28;20619;-74
2021/03/11 10:32:26;;;;;;;41.40;5.40;;;;;;;-145.50;100.00;65435.88;4963674;28;20478;-72
2021/03/11 10:34:52;;;;;;;36.90;4.97;;;;;;;-145.50;100.00;65435.88;4950790;28;20085;-72
2021/03/11 10:37:33;;;;;;;38.75;4.63;;;;;;;-145.50;100.00;65435.88;4968175;28;20062;-71
2021/03/11 10:40:06;;;;;;;37.05;4.53;;;;;;;-145.50;100.00;65435.88;4944604;28;20059;-72
2021/03/11 10:42:43;;;;;;;28.30;4.10;;;;;;;-145.50;100.00;65435.88;4965570;28;20498;-71
2021/03/11 10:45:13;;;;;;;31.70;4.73;;;;;;;-145.50;100.00;65435.88;4966775;28;20082;-71
2021/03/11 10:47:39;;;;;;;30.40;4.78;;;;;;;-145.50;100.00;65435.88;4955584;28;20063;-71
2021/03/11 10:50:22;;;;;;;34.55;5.22;;;;;;;-145.50;100.00;65435.88;4960561;28;20059;-71
2021/03/11 10:52:53;;;;;;;30.25;5.68;;;;;;;-145.50;100.00;65435.88;4960962;28;20117;-72
2021/03/11 10:55:30;;;;;;;33.83;4.88;;;;;;;-145.50;100.00;65435.88;4966190;28;20138;-71
2021/03/11 10:57:57;;;;;;;26.70;4.18;;;;;;;-145.50;100.00;65435.88;4960783;28;20059;-72
2021/03/11 11:00:35;;;;;;;35.38;5.82;;;;;;;-145.50;100.00;65435.88;4964471;28;20058;-71
2021/03/11 11:03:04;;;;;;;39.47;5.72;;;;;;;-145.50;100.00;65435.88;4957625;28;20063;-72
2021/03/11 11:05:32;;;;;;;40.33;4.40;;;;;;;-145.50;100.00;65435.88;4966876;28;20063;-72
2021/03/11 11:07:59;;;;;;;23.23;4.00;;;;;;;-145.50;100.00;65435.88;4961719;28;20380;-72
2021/03/11 11:10:28;;;;;;;32.08;4.50;;;;;;;-145.50;100.00;65435.88;4966514;28;20830;-71
2021/03/11 11:12:54;;;;;;;;;;;;;;;-145.50;100.00;65435.88;4966998;28;20055;-73
2021/03/11 11:15:20;;;;;;;31.73;4.63;;;;;;;-145.50;100.00;65435.88;4957708;28;19963;-72
2021/03/11 11:17:46;;;;;;;30.90;5.03;;;;;;;-145.50;100.00;65435.88;4965944;28;20522;-73
2021/03/11 11:20:15;;;;;;;33.40;4.65;;;;;;;-145.50;100.00;65435.88;4944864;28;20070;-73
2021/03/11 11:22:42;;;;;;;23.77;3.70;;;;;;;-145.50;100.00;65435.88;4946769;28;20122;-72
2021/03/11 11:25:09;;;;;;;27.77;4.10;;;;;;;-145.50;100.00;65435.88;4961471;28;20055;-73